VTK519 EGLC-UMKK
Flight info
| Callsign | VTK519 |
|---|---|
| Flight time | 1h 51m |
| Altitude | 39000 |
| Route | N0448F390 SOQQA DCT BRAIN M197 REDFA L620 TULIP Y12 SPY N873 ANDIK M105 OPWOT Z612 WSN L23 BINKA DCT BEZMI L733 RANOK L983 TARUN |
| Aircraft | B737/M-SDE2E3FGHIRWXY/LB1 |
Departure
| Time | 2026-05-08 09:14 |
|---|---|
| Airport | London City Airport (EGLC) |
Arrival
| Time | 2026-05-08 11:06 |
|---|---|
| Airport | Khrabrovo Airport (UMKK) |
| Time | Latitude | Longitude | Altitude | Speed | Heading |
|---|---|---|---|---|---|
| 2026-05-08 08:56 | 51.50409 | 0.05072 | 27 ft | 0 kts | 324° |
| 2026-05-08 09:10 | 51.50418 | 0.05069 | 24 ft | 2 kts | 352° |
| 2026-05-08 09:10 | 51.50441 | 0.05078 | 24 ft | 4 kts | 6° |
| 2026-05-08 09:10 | 51.50458 | 0.05049 | 28 ft | 4 kts | 282° |
| 2026-05-08 09:11 | 51.50461 | 0.05007 | 29 ft | 4 kts | 274° |
| 2026-05-08 09:11 | 51.50463 | 0.04962 | 26 ft | 5 kts | 272° |
| 2026-05-08 09:11 | 51.50465 | 0.04897 | 24 ft | 7 kts | 272° |
| 2026-05-08 09:11 | 51.50467 | 0.04805 | 24 ft | 9 kts | 272° |
| 2026-05-08 09:12 | 51.50471 | 0.04702 | 24 ft | 9 kts | 273° |
| 2026-05-08 09:12 | 51.50474 | 0.04601 | 26 ft | 9 kts | 273° |
| 2026-05-08 09:12 | 51.50477 | 0.04506 | 27 ft | 7 kts | 276° |
| 2026-05-08 09:12 | 51.50501 | 0.04448 | 25 ft | 7 kts | 333° |
| 2026-05-08 09:13 | 51.50530 | 0.04443 | 26 ft | 6 kts | 9° |
| 2026-05-08 09:13 | 51.50553 | 0.04481 | 24 ft | 4 kts | 77° |
| 2026-05-08 09:13 | 51.50554 | 0.04527 | 24 ft | 4 kts | 91° |
| 2026-05-08 09:13 | 51.50544 | 0.04839 | 24 ft | 71 kts | 93° |
| 2026-05-08 09:14 | 51.50505 | 0.06108 | 93 ft | 146 kts | 92° |
| 2026-05-08 09:14 | 51.50461 | 0.07741 | 1079 ft | 146 kts | 93° |
| 2026-05-08 09:14 | 51.50428 | 0.09365 | 1996 ft | 150 kts | 90° |
| 2026-05-08 09:14 | 51.50755 | 0.10976 | 2642 ft | 158 kts | 57° |
| 2026-05-08 09:15 | 51.51585 | 0.12164 | 2904 ft | 168 kts | 36° |
| 2026-05-08 09:15 | 51.52641 | 0.13265 | 3237 ft | 196 kts | 35° |
| 2026-05-08 09:15 | 51.53881 | 0.14520 | 3566 ft | 221 kts | 34° |
| 2026-05-08 09:15 | 51.55169 | 0.15936 | 4275 ft | 227 kts | 48° |
| 2026-05-08 09:16 | 51.55916 | 0.18131 | 5087 ft | 228 kts | 80° |
| 2026-05-08 09:16 | 51.56163 | 0.20725 | 5693 ft | 247 kts | 84° |
| 2026-05-08 09:16 | 51.56407 | 0.23622 | 6143 ft | 271 kts | 82° |
| 2026-05-08 09:16 | 51.56920 | 0.26565 | 7105 ft | 278 kts | 66° |
| 2026-05-08 09:17 | 51.57792 | 0.29363 | 8088 ft | 283 kts | 64° |
| 2026-05-08 09:17 | 51.58664 | 0.32189 | 9017 ft | 290 kts | 65° |
| 2026-05-08 09:17 | 51.59550 | 0.35153 | 9994 ft | 296 kts | 65° |
| 2026-05-08 09:17 | 51.60453 | 0.38153 | 10931 ft | 301 kts | 60° |
| 2026-05-08 09:18 | 51.61832 | 0.40744 | 11658 ft | 315 kts | 40° |
| 2026-05-08 09:18 | 51.63611 | 0.43060 | 11913 ft | 344 kts | 37° |
| 2026-05-08 09:18 | 51.65585 | 0.45493 | 12181 ft | 370 kts | 37° |
| 2026-05-08 09:18 | 51.67668 | 0.48061 | 12839 ft | 382 kts | 37° |
| 2026-05-08 09:19 | 51.69771 | 0.50691 | 13840 ft | 384 kts | 38° |
| 2026-05-08 09:19 | 51.71888 | 0.53375 | 14681 ft | 390 kts | 38° |
| 2026-05-08 09:19 | 51.74032 | 0.56113 | 15545 ft | 395 kts | 38° |
| 2026-05-08 09:19 | 51.76200 | 0.58895 | 16415 ft | 400 kts | 39° |
| 2026-05-08 09:20 | 51.78392 | 0.61735 | 17245 ft | 406 kts | 41° |
| 2026-05-08 09:20 | 51.80313 | 0.65110 | 18037 ft | 412 kts | 56° |
| 2026-05-08 09:20 | 51.81703 | 0.69163 | 18801 ft | 415 kts | 69° |
| 2026-05-08 09:20 | 51.82520 | 0.73654 | 19562 ft | 417 kts | 78° |
| 2026-05-08 09:21 | 51.83161 | 0.78240 | 20339 ft | 420 kts | 78° |
| 2026-05-08 09:21 | 51.83819 | 0.82856 | 21070 ft | 424 kts | 77° |
| 2026-05-08 09:22 | 51.88980 | 1.11140 | 24862 ft | 450 kts | 74° |
| 2026-05-08 09:23 | 51.89863 | 1.16022 | 25422 ft | 453 kts | 74° |
| 2026-05-08 09:23 | 51.90757 | 1.20995 | 25968 ft | 456 kts | 75° |
| 2026-05-08 09:23 | 51.91633 | 1.25896 | 26480 ft | 459 kts | 75° |
| 2026-05-08 09:23 | 51.92522 | 1.30886 | 26967 ft | 463 kts | 75° |
| 2026-05-08 09:24 | 51.93414 | 1.35909 | 27450 ft | 466 kts | 75° |
| 2026-05-08 09:24 | 51.94314 | 1.40982 | 27930 ft | 469 kts | 75° |
| 2026-05-08 09:24 | 51.95218 | 1.46093 | 28388 ft | 472 kts | 75° |
| 2026-05-08 09:24 | 51.96122 | 1.51218 | 28931 ft | 473 kts | 75° |
| 2026-05-08 09:25 | 51.97022 | 1.56332 | 29591 ft | 470 kts | 75° |
| 2026-05-08 09:25 | 51.97916 | 1.61420 | 30273 ft | 467 kts | 75° |
| 2026-05-08 09:25 | 51.98803 | 1.66485 | 30774 ft | 467 kts | 75° |
| 2026-05-08 09:25 | 51.99670 | 1.71566 | 31197 ft | 467 kts | 76° |
| 2026-05-08 09:26 | 52.00485 | 1.76670 | 31614 ft | 468 kts | 77° |
| 2026-05-08 09:26 | 52.01277 | 1.81800 | 32072 ft | 467 kts | 77° |
| 2026-05-08 09:26 | 52.02057 | 1.86902 | 32548 ft | 467 kts | 77° |
| 2026-05-08 09:26 | 52.02841 | 1.92027 | 32986 ft | 466 kts | 77° |
| 2026-05-08 09:27 | 52.03626 | 1.97142 | 33397 ft | 467 kts | 77° |
| 2026-05-08 09:27 | 52.04414 | 2.02255 | 33802 ft | 467 kts | 77° |
| 2026-05-08 09:27 | 52.05200 | 2.07362 | 34217 ft | 466 kts | 77° |
| 2026-05-08 09:27 | 52.05986 | 2.12471 | 34553 ft | 466 kts | 77° |
| 2026-05-08 09:28 | 52.06772 | 2.17594 | 34848 ft | 467 kts | 76° |
| 2026-05-08 09:28 | 52.07556 | 2.22723 | 35134 ft | 468 kts | 76° |
| 2026-05-08 09:28 | 52.08339 | 2.27863 | 35449 ft | 468 kts | 76° |
| 2026-05-08 09:28 | 52.09118 | 2.33000 | 35759 ft | 468 kts | 76° |
| 2026-05-08 09:29 | 52.09895 | 2.38135 | 36055 ft | 468 kts | 76° |
| 2026-05-08 09:29 | 52.10673 | 2.43285 | 36346 ft | 469 kts | 76° |
| 2026-05-08 09:29 | 52.11445 | 2.48411 | 36627 ft | 469 kts | 76° |
| 2026-05-08 09:29 | 52.12314 | 2.53541 | 36866 ft | 471 kts | 73° |
| 2026-05-08 09:30 | 52.13273 | 2.58636 | 37132 ft | 471 kts | 72° |
| 2026-05-08 09:30 | 52.14264 | 2.63707 | 37423 ft | 471 kts | 72° |
| 2026-05-08 09:30 | 52.15262 | 2.68800 | 37712 ft | 471 kts | 72° |
| 2026-05-08 09:30 | 52.16235 | 2.73824 | 37971 ft | 472 kts | 72° |
| 2026-05-08 09:31 | 52.17221 | 2.78991 | 38230 ft | 472 kts | 72° |
| 2026-05-08 09:31 | 52.18173 | 2.84034 | 38509 ft | 472 kts | 73° |
| 2026-05-08 09:31 | 52.19143 | 2.89214 | 38772 ft | 472 kts | 73° |
| 2026-05-08 09:31 | 52.20097 | 2.94331 | 38972 ft | 473 kts | 73° |
| 2026-05-08 09:32 | 52.21053 | 2.99473 | 39128 ft | 474 kts | 73° |
| 2026-05-08 09:32 | 52.22972 | 3.09832 | 39139 ft | 478 kts | 73° |
| 2026-05-08 09:33 | 52.24883 | 3.20187 | 39124 ft | 473 kts | 73° |
| 2026-05-08 09:33 | 52.26769 | 3.30447 | 39121 ft | 470 kts | 73° |
| 2026-05-08 09:34 | 52.28632 | 3.40577 | 39134 ft | 468 kts | 73° |
| 2026-05-08 09:34 | 52.30494 | 3.50754 | 39124 ft | 467 kts | 73° |
| 2026-05-08 09:35 | 52.32340 | 3.60914 | 39142 ft | 466 kts | 73° |
| 2026-05-08 09:35 | 52.34180 | 3.71099 | 39145 ft | 468 kts | 73° |
| 2026-05-08 09:36 | 52.36019 | 3.81328 | 39153 ft | 470 kts | 73° |
| 2026-05-08 09:36 | 52.37852 | 3.91609 | 39150 ft | 473 kts | 74° |
| 2026-05-08 09:37 | 52.39680 | 4.01988 | 39142 ft | 475 kts | 74° |
| 2026-05-08 09:37 | 52.41504 | 4.12406 | 39143 ft | 476 kts | 74° |
| 2026-05-08 09:38 | 52.43320 | 4.22833 | 39137 ft | 477 kts | 74° |
| 2026-05-08 09:38 | 52.45131 | 4.33283 | 39145 ft | 477 kts | 74° |
| 2026-05-08 09:39 | 52.46926 | 4.43709 | 39128 ft | 477 kts | 74° |
| 2026-05-08 09:39 | 52.48717 | 4.54171 | 39133 ft | 475 kts | 75° |
| 2026-05-08 09:40 | 52.50494 | 4.64609 | 39128 ft | 474 kts | 75° |
| 2026-05-08 09:40 | 52.52258 | 4.75027 | 39128 ft | 473 kts | 75° |
| 2026-05-08 09:41 | 52.54371 | 4.85212 | 39128 ft | 472 kts | 63° |
| 2026-05-08 09:41 | 52.58012 | 4.94115 | 39155 ft | 469 kts | 50° |
| 2026-05-08 09:42 | 52.62135 | 5.02430 | 39130 ft | 469 kts | 50° |
| 2026-05-08 09:42 | 52.66204 | 5.10832 | 39160 ft | 470 kts | 51° |
| 2026-05-08 09:43 | 52.70218 | 5.19277 | 39149 ft | 470 kts | 51° |
| 2026-05-08 09:43 | 52.74001 | 5.28076 | 39144 ft | 471 kts | 62° |
| 2026-05-08 09:44 | 52.76445 | 5.38114 | 39165 ft | 472 kts | 71° |
| 2026-05-08 09:44 | 52.78571 | 5.48374 | 39157 ft | 472 kts | 71° |
| 2026-05-08 09:45 | 52.80717 | 5.58646 | 39153 ft | 473 kts | 71° |
| 2026-05-08 09:45 | 52.82896 | 5.68920 | 39147 ft | 473 kts | 71° |
| 2026-05-08 09:46 | 52.85083 | 5.79196 | 39141 ft | 474 kts | 71° |
| 2026-05-08 09:46 | 52.87263 | 5.89486 | 39163 ft | 474 kts | 71° |
| 2026-05-08 09:47 | 52.89435 | 5.99803 | 39146 ft | 474 kts | 71° |
| 2026-05-08 09:47 | 52.91581 | 6.10054 | 39152 ft | 473 kts | 71° |
| 2026-05-08 09:48 | 52.93728 | 6.20364 | 39164 ft | 473 kts | 71° |
| 2026-05-08 09:48 | 52.95865 | 6.30676 | 39167 ft | 472 kts | 71° |
| 2026-05-08 09:49 | 52.97990 | 6.40984 | 39166 ft | 472 kts | 71° |
| 2026-05-08 09:49 | 53.00105 | 6.51299 | 39170 ft | 472 kts | 71° |
| 2026-05-08 09:50 | 53.02212 | 6.61626 | 39140 ft | 473 kts | 72° |
| 2026-05-08 09:50 | 53.04314 | 6.71982 | 39160 ft | 472 kts | 72° |
| 2026-05-08 09:51 | 53.06405 | 6.82341 | 39163 ft | 472 kts | 72° |
| 2026-05-08 09:51 | 53.08473 | 6.92634 | 39166 ft | 472 kts | 72° |
| 2026-05-08 09:52 | 53.10543 | 7.03001 | 39156 ft | 472 kts | 72° |
| 2026-05-08 09:52 | 53.12608 | 7.13386 | 39157 ft | 472 kts | 72° |
| 2026-05-08 09:53 | 53.14650 | 7.23763 | 39175 ft | 472 kts | 72° |
| 2026-05-08 09:53 | 53.16666 | 7.34162 | 39174 ft | 472 kts | 72° |
| 2026-05-08 09:54 | 53.18689 | 7.44578 | 39171 ft | 472 kts | 72° |
| 2026-05-08 09:54 | 53.20379 | 7.53260 | 39159 ft | 473 kts | 72° |
| 2026-05-08 09:55 | 53.22740 | 7.65471 | 39167 ft | 473 kts | 72° |
| 2026-05-08 09:55 | 53.24416 | 7.74150 | 39158 ft | 473 kts | 72° |
| 2026-05-08 09:56 | 53.26428 | 7.84615 | 39175 ft | 473 kts | 73° |
| 2026-05-08 09:56 | 53.28433 | 7.95103 | 39175 ft | 474 kts | 73° |
| 2026-05-08 09:57 | 53.31423 | 8.10854 | 39173 ft | 474 kts | 73° |
| 2026-05-08 09:57 | 53.33499 | 8.21337 | 39172 ft | 474 kts | 70° |
| 2026-05-08 09:58 | 53.35923 | 8.31609 | 39172 ft | 474 kts | 69° |
| 2026-05-08 09:58 | 53.38321 | 8.41893 | 39178 ft | 474 kts | 70° |
| 2026-05-08 09:59 | 53.39225 | 8.47135 | 39168 ft | 473 kts | 82° |
| 2026-05-08 09:59 | 53.39520 | 8.52595 | 39187 ft | 471 kts | 91° |
| 2026-05-08 09:59 | 53.39272 | 8.58059 | 39175 ft | 469 kts | 103° |
| 2026-05-08 09:59 | 53.38508 | 8.63326 | 39193 ft | 467 kts | 107° |
| 2026-05-08 10:00 | 53.36786 | 8.73828 | 39181 ft | 468 kts | 107° |
| 2026-05-08 10:00 | 53.35520 | 8.84504 | 39175 ft | 471 kts | 91° |
| 2026-05-08 10:01 | 53.36574 | 8.95299 | 39175 ft | 473 kts | 68° |
| 2026-05-08 10:01 | 53.39231 | 9.05374 | 39181 ft | 474 kts | 65° |
| 2026-05-08 10:02 | 53.41956 | 9.15452 | 39187 ft | 475 kts | 66° |
| 2026-05-08 10:02 | 53.44603 | 9.25596 | 39183 ft | 475 kts | 67° |
| 2026-05-08 10:03 | 53.47216 | 9.35778 | 39176 ft | 475 kts | 67° |
| 2026-05-08 10:03 | 53.49827 | 9.45971 | 39197 ft | 475 kts | 67° |
| 2026-05-08 10:04 | 53.52418 | 9.56164 | 39205 ft | 474 kts | 67° |
| 2026-05-08 10:04 | 53.55008 | 9.66362 | 39211 ft | 474 kts | 67° |
| 2026-05-08 10:05 | 53.57595 | 9.76557 | 39213 ft | 473 kts | 66° |
| 2026-05-08 10:05 | 53.60178 | 9.86743 | 39222 ft | 473 kts | 67° |
| 2026-05-08 10:06 | 53.62741 | 9.96955 | 39212 ft | 473 kts | 67° |
| 2026-05-08 10:06 | 53.65273 | 10.07099 | 39212 ft | 472 kts | 67° |
| 2026-05-08 10:07 | 53.67782 | 10.17329 | 39204 ft | 472 kts | 71° |
| 2026-05-08 10:07 | 53.69024 | 10.28118 | 39210 ft | 469 kts | 87° |
| 2026-05-08 10:08 | 53.69359 | 10.39108 | 39204 ft | 469 kts | 88° |
| 2026-05-08 10:08 | 53.69676 | 10.50089 | 39202 ft | 469 kts | 88° |
| 2026-05-08 10:09 | 53.70037 | 10.61087 | 39210 ft | 469 kts | 87° |
| 2026-05-08 10:09 | 53.70406 | 10.72090 | 39212 ft | 470 kts | 87° |
| 2026-05-08 10:10 | 53.70764 | 10.83096 | 39212 ft | 470 kts | 88° |
| 2026-05-08 10:10 | 53.71112 | 10.94126 | 39210 ft | 470 kts | 88° |
| 2026-05-08 10:11 | 53.71445 | 11.05153 | 39205 ft | 470 kts | 88° |
| 2026-05-08 10:11 | 53.71767 | 11.16188 | 39203 ft | 471 kts | 88° |
| 2026-05-08 10:12 | 53.72077 | 11.27232 | 39204 ft | 471 kts | 88° |
| 2026-05-08 10:12 | 53.72378 | 11.38280 | 39198 ft | 471 kts | 88° |
| 2026-05-08 10:13 | 53.72668 | 11.49245 | 39198 ft | 470 kts | 88° |
| 2026-05-08 10:13 | 53.72950 | 11.60271 | 39193 ft | 470 kts | 88° |
| 2026-05-08 10:14 | 53.73219 | 11.71283 | 39197 ft | 469 kts | 89° |
| 2026-05-08 10:14 | 53.73480 | 11.82303 | 39193 ft | 469 kts | 88° |
| 2026-05-08 10:15 | 53.73724 | 11.93313 | 39195 ft | 469 kts | 89° |
| 2026-05-08 10:15 | 53.73946 | 12.04311 | 39193 ft | 469 kts | 89° |
| 2026-05-08 10:16 | 53.74165 | 12.15320 | 39194 ft | 468 kts | 88° |
| 2026-05-08 10:16 | 53.74431 | 12.26328 | 39207 ft | 468 kts | 88° |
| 2026-05-08 10:17 | 53.74692 | 12.37257 | 39207 ft | 469 kts | 88° |
| 2026-05-08 10:17 | 53.74934 | 12.48267 | 39205 ft | 469 kts | 89° |
| 2026-05-08 10:18 | 53.75082 | 12.59287 | 39204 ft | 469 kts | 89° |
| 2026-05-08 10:18 | 53.75210 | 12.70300 | 39197 ft | 469 kts | 89° |
| 2026-05-08 10:19 | 53.75335 | 12.81324 | 39197 ft | 469 kts | 89° |
| 2026-05-08 10:20 | 53.75588 | 12.97852 | 39209 ft | 469 kts | 89° |
| 2026-05-08 10:20 | 53.75748 | 13.08883 | 39211 ft | 469 kts | 89° |
| 2026-05-08 10:21 | 53.75891 | 13.19912 | 39208 ft | 470 kts | 89° |
| 2026-05-08 10:21 | 53.76022 | 13.30942 | 39215 ft | 470 kts | 89° |
| 2026-05-08 10:22 | 53.76142 | 13.41909 | 39213 ft | 469 kts | 89° |
| 2026-05-08 10:22 | 53.76260 | 13.52934 | 39220 ft | 469 kts | 89° |
| 2026-05-08 10:23 | 53.76293 | 13.63960 | 39216 ft | 469 kts | 91° |
| 2026-05-08 10:23 | 53.76184 | 13.74979 | 39221 ft | 468 kts | 91° |
| 2026-05-08 10:24 | 53.76173 | 13.85976 | 39225 ft | 468 kts | 91° |
| 2026-05-08 10:24 | 53.76118 | 13.96984 | 39228 ft | 468 kts | 91° |
| 2026-05-08 10:25 | 53.76045 | 14.07968 | 39239 ft | 467 kts | 91° |
| 2026-05-08 10:25 | 53.75969 | 14.18941 | 39238 ft | 467 kts | 91° |
| 2026-05-08 10:26 | 53.76444 | 14.29877 | 39234 ft | 468 kts | 78° |
| 2026-05-08 10:26 | 53.78497 | 14.40318 | 39238 ft | 468 kts | 70° |
| 2026-05-08 10:27 | 53.80797 | 14.50637 | 39234 ft | 469 kts | 70° |
| 2026-05-08 10:27 | 53.83062 | 14.60974 | 39228 ft | 469 kts | 70° |
| 2026-05-08 10:28 | 53.85288 | 14.71373 | 39232 ft | 469 kts | 71° |
| 2026-05-08 10:28 | 53.87490 | 14.81782 | 39224 ft | 470 kts | 71° |
| 2026-05-08 10:29 | 53.89682 | 14.92206 | 39227 ft | 469 kts | 71° |
| 2026-05-08 10:29 | 53.91867 | 15.02646 | 39233 ft | 470 kts | 71° |
| 2026-05-08 10:30 | 53.94046 | 15.13103 | 39233 ft | 469 kts | 71° |
| 2026-05-08 10:30 | 53.96216 | 15.23569 | 39234 ft | 469 kts | 71° |
| 2026-05-08 10:31 | 53.98371 | 15.34020 | 39236 ft | 469 kts | 71° |
| 2026-05-08 10:31 | 54.00519 | 15.44491 | 39237 ft | 469 kts | 71° |
| 2026-05-08 10:32 | 54.02657 | 15.54968 | 39235 ft | 469 kts | 71° |
| 2026-05-08 10:32 | 54.04772 | 15.65392 | 39236 ft | 469 kts | 72° |
| 2026-05-08 10:33 | 54.06893 | 15.75897 | 39238 ft | 468 kts | 72° |
| 2026-05-08 10:33 | 54.09001 | 15.86393 | 39235 ft | 468 kts | 72° |
| 2026-05-08 10:34 | 54.11099 | 15.96894 | 39240 ft | 468 kts | 72° |
| 2026-05-08 10:34 | 54.13188 | 16.07409 | 39231 ft | 468 kts | 72° |
| 2026-05-08 10:35 | 54.15268 | 16.17936 | 39232 ft | 468 kts | 72° |
| 2026-05-08 10:35 | 54.17337 | 16.28466 | 39241 ft | 468 kts | 72° |
| 2026-05-08 10:36 | 54.19402 | 16.39029 | 39228 ft | 468 kts | 72° |
| 2026-05-08 10:36 | 54.21441 | 16.49519 | 39234 ft | 468 kts | 72° |
| 2026-05-08 10:37 | 54.23485 | 16.60090 | 39225 ft | 468 kts | 72° |
| 2026-05-08 10:37 | 54.25518 | 16.70664 | 39221 ft | 468 kts | 73° |
| 2026-05-08 10:38 | 54.27544 | 16.81262 | 39222 ft | 468 kts | 73° |
| 2026-05-08 10:38 | 54.29557 | 16.91850 | 39226 ft | 468 kts | 73° |
| 2026-05-08 10:39 | 54.31220 | 17.00642 | 39221 ft | 468 kts | 73° |
| 2026-05-08 10:39 | 54.33230 | 17.11318 | 39218 ft | 468 kts | 73° |
| 2026-05-08 10:40 | 54.35206 | 17.21877 | 39219 ft | 466 kts | 73° |
| 2026-05-08 10:40 | 54.36183 | 17.27115 | 38994 ft | 458 kts | 73° |
| 2026-05-08 10:40 | 54.37151 | 17.32322 | 38299 ft | 459 kts | 73° |
| 2026-05-08 10:40 | 54.38122 | 17.37549 | 37508 ft | 461 kts | 73° |
| 2026-05-08 10:41 | 54.39312 | 17.42653 | 36869 ft | 462 kts | 64° |
| 2026-05-08 10:41 | 54.40895 | 17.47426 | 36455 ft | 456 kts | 60° |
| 2026-05-08 10:41 | 54.42524 | 17.52035 | 36112 ft | 449 kts | 60° |
| 2026-05-08 10:41 | 54.44150 | 17.56581 | 35679 ft | 444 kts | 59° |
| 2026-05-08 10:42 | 54.45753 | 17.61076 | 35236 ft | 440 kts | 60° |
| 2026-05-08 10:42 | 54.47341 | 17.65573 | 34793 ft | 436 kts | 60° |
| 2026-05-08 10:42 | 54.48892 | 17.70007 | 34419 ft | 431 kts | 61° |
| 2026-05-08 10:42 | 54.50422 | 17.74410 | 34045 ft | 425 kts | 61° |
| 2026-05-08 10:43 | 54.51925 | 17.78761 | 33624 ft | 420 kts | 61° |
| 2026-05-08 10:43 | 54.53408 | 17.83067 | 33147 ft | 416 kts | 62° |
| 2026-05-08 10:43 | 54.54876 | 17.87339 | 32687 ft | 413 kts | 62° |
| 2026-05-08 10:43 | 54.56336 | 17.91586 | 32250 ft | 409 kts | 62° |
| 2026-05-08 10:44 | 54.57776 | 17.95782 | 31823 ft | 405 kts | 62° |
| 2026-05-08 10:44 | 54.59201 | 17.99947 | 31406 ft | 402 kts | 63° |
| 2026-05-08 10:44 | 54.60613 | 18.04081 | 30976 ft | 398 kts | 63° |
| 2026-05-08 10:44 | 54.62014 | 18.08188 | 30581 ft | 395 kts | 64° |
| 2026-05-08 10:45 | 54.63397 | 18.12252 | 30188 ft | 391 kts | 65° |
| 2026-05-08 10:45 | 54.64765 | 18.16277 | 29712 ft | 387 kts | 65° |
| 2026-05-08 10:45 | 54.66107 | 18.20238 | 29206 ft | 384 kts | 65° |
| 2026-05-08 10:45 | 54.67449 | 18.24204 | 28685 ft | 381 kts | 65° |
| 2026-05-08 10:46 | 54.68782 | 18.28153 | 28183 ft | 378 kts | 65° |
| 2026-05-08 10:46 | 54.70101 | 18.32062 | 27697 ft | 375 kts | 64° |
| 2026-05-08 10:46 | 54.71410 | 18.35949 | 27221 ft | 372 kts | 64° |
| 2026-05-08 10:46 | 54.72705 | 18.39801 | 26745 ft | 370 kts | 64° |
| 2026-05-08 10:47 | 54.73994 | 18.43638 | 26285 ft | 367 kts | 64° |
| 2026-05-08 10:47 | 54.75269 | 18.47443 | 25830 ft | 364 kts | 64° |
| 2026-05-08 10:47 | 54.76540 | 18.51240 | 25378 ft | 362 kts | 64° |
| 2026-05-08 10:47 | 54.77794 | 18.54995 | 24941 ft | 360 kts | 64° |
| 2026-05-08 10:48 | 54.79043 | 18.58738 | 24499 ft | 357 kts | 63° |
| 2026-05-08 10:48 | 54.80280 | 18.62451 | 24077 ft | 355 kts | 63° |
| 2026-05-08 10:48 | 54.81508 | 18.66143 | 23618 ft | 352 kts | 63° |
| 2026-05-08 10:48 | 54.82727 | 18.69813 | 23131 ft | 350 kts | 63° |
| 2026-05-08 10:49 | 54.83934 | 18.73455 | 22658 ft | 347 kts | 63° |
| 2026-05-08 10:49 | 54.85131 | 18.77071 | 22187 ft | 344 kts | 63° |
| 2026-05-08 10:49 | 54.86318 | 18.80663 | 21687 ft | 343 kts | 62° |
| 2026-05-08 10:49 | 54.87505 | 18.84256 | 21162 ft | 342 kts | 63° |
| 2026-05-08 10:50 | 54.88687 | 18.87839 | 20716 ft | 340 kts | 63° |
| 2026-05-08 10:50 | 54.89856 | 18.91387 | 20306 ft | 336 kts | 63° |
| 2026-05-08 10:50 | 54.90817 | 18.95051 | 19851 ft | 331 kts | 76° |
| 2026-05-08 10:50 | 54.91254 | 18.98947 | 19417 ft | 326 kts | 88° |
| 2026-05-08 10:51 | 54.91260 | 19.02862 | 19002 ft | 323 kts | 93° |
| 2026-05-08 10:51 | 54.91180 | 19.06728 | 18605 ft | 319 kts | 94° |
| 2026-05-08 10:51 | 54.91086 | 19.10571 | 18134 ft | 318 kts | 94° |
| 2026-05-08 10:51 | 54.90995 | 19.14343 | 17676 ft | 315 kts | 94° |
| 2026-05-08 10:52 | 54.90909 | 19.18121 | 17301 ft | 310 kts | 94° |
| 2026-05-08 10:52 | 54.90828 | 19.21834 | 16933 ft | 305 kts | 93° |
| 2026-05-08 10:52 | 54.90750 | 19.25520 | 16425 ft | 306 kts | 93° |
| 2026-05-08 10:52 | 54.90673 | 19.29194 | 16047 ft | 301 kts | 93° |
| 2026-05-08 10:53 | 54.90597 | 19.32803 | 15710 ft | 296 kts | 93° |
| 2026-05-08 10:53 | 54.90522 | 19.36386 | 15239 ft | 296 kts | 92° |
| 2026-05-08 10:53 | 54.90446 | 19.39952 | 14779 ft | 296 kts | 92° |
| 2026-05-08 10:53 | 54.90370 | 19.43488 | 14464 ft | 290 kts | 92° |
| 2026-05-08 10:54 | 54.90295 | 19.46967 | 14070 ft | 288 kts | 92° |
| 2026-05-08 10:54 | 54.90219 | 19.50449 | 13559 ft | 288 kts | 92° |
| 2026-05-08 10:54 | 54.90141 | 19.53929 | 13158 ft | 285 kts | 92° |
| 2026-05-08 10:54 | 54.90065 | 19.57332 | 12819 ft | 279 kts | 92° |
| 2026-05-08 10:55 | 54.89880 | 19.60680 | 12280 ft | 281 kts | 104° |
| 2026-05-08 10:55 | 54.89231 | 19.63890 | 11830 ft | 281 kts | 110° |
| 2026-05-08 10:55 | 54.88515 | 19.67019 | 11476 ft | 277 kts | 110° |
| 2026-05-08 10:55 | 54.87800 | 19.70109 | 11099 ft | 274 kts | 110° |
| 2026-05-08 10:56 | 54.87095 | 19.73171 | 10716 ft | 272 kts | 110° |
| 2026-05-08 10:56 | 54.86405 | 19.76190 | 10355 ft | 272 kts | 110° |
| 2026-05-08 10:56 | 54.85712 | 19.79238 | 9988 ft | 272 kts | 110° |
| 2026-05-08 10:56 | 54.85022 | 19.82280 | 9587 ft | 271 kts | 110° |
| 2026-05-08 10:57 | 54.84332 | 19.85314 | 9195 ft | 270 kts | 110° |
| 2026-05-08 10:57 | 54.83645 | 19.88342 | 8797 ft | 269 kts | 109° |
| 2026-05-08 10:57 | 54.82289 | 19.94331 | 8047 ft | 264 kts | 110° |
| 2026-05-08 10:58 | 54.81619 | 19.97285 | 7690 ft | 261 kts | 110° |
| 2026-05-08 10:58 | 54.80951 | 20.00194 | 7318 ft | 258 kts | 109° |
| 2026-05-08 10:58 | 54.80300 | 20.03081 | 6940 ft | 256 kts | 109° |
| 2026-05-08 10:58 | 54.79651 | 20.05943 | 6570 ft | 254 kts | 109° |
| 2026-05-08 10:59 | 54.79011 | 20.08783 | 6177 ft | 251 kts | 109° |
| 2026-05-08 10:59 | 54.78375 | 20.11587 | 5778 ft | 250 kts | 109° |
| 2026-05-08 10:59 | 54.77903 | 20.14437 | 5471 ft | 243 kts | 91° |
| 2026-05-08 10:59 | 54.78267 | 20.17240 | 5181 ft | 239 kts | 69° |
| 2026-05-08 11:00 | 54.78944 | 20.19854 | 4846 ft | 237 kts | 67° |
| 2026-05-08 11:00 | 54.79618 | 20.22439 | 4535 ft | 233 kts | 68° |
| 2026-05-08 11:00 | 54.80251 | 20.25006 | 4223 ft | 229 kts | 68° |
| 2026-05-08 11:00 | 54.80868 | 20.27493 | 3894 ft | 220 kts | 67° |
| 2026-05-08 11:01 | 54.81470 | 20.29867 | 3604 ft | 210 kts | 66° |
| 2026-05-08 11:01 | 54.82054 | 20.32144 | 3320 ft | 202 kts | 66° |
| 2026-05-08 11:01 | 54.82608 | 20.34328 | 3047 ft | 194 kts | 65° |
| 2026-05-08 11:01 | 54.83142 | 20.36408 | 2810 ft | 184 kts | 65° |
| 2026-05-08 11:02 | 54.83644 | 20.38368 | 2559 ft | 175 kts | 65° |
| 2026-05-08 11:02 | 54.84595 | 20.42080 | 2057 ft | 160 kts | 64° |
| 2026-05-08 11:02 | 54.85027 | 20.43771 | 1849 ft | 145 kts | 64° |
| 2026-05-08 11:03 | 54.85414 | 20.45279 | 1678 ft | 126 kts | 64° |
| 2026-05-08 11:03 | 54.85752 | 20.46607 | 1503 ft | 116 kts | 64° |
| 2026-05-08 11:03 | 54.86077 | 20.47861 | 1330 ft | 114 kts | 65° |
| 2026-05-08 11:03 | 54.86403 | 20.49144 | 1184 ft | 116 kts | 64° |
| 2026-05-08 11:04 | 54.86729 | 20.50427 | 1027 ft | 116 kts | 63° |
| 2026-05-08 11:04 | 54.87055 | 20.51719 | 803 ft | 119 kts | 62° |
| 2026-05-08 11:04 | 54.87390 | 20.53025 | 617 ft | 118 kts | 61° |
| 2026-05-08 11:04 | 54.87733 | 20.54337 | 440 ft | 121 kts | 62° |
| 2026-05-08 11:05 | 54.88081 | 20.55683 | 286 ft | 125 kts | 62° |
| 2026-05-08 11:05 | 54.88444 | 20.57084 | 111 ft | 129 kts | 62° |
| 2026-05-08 11:05 | 54.88809 | 20.58481 | 23 ft | 116 kts | 67° |
| 2026-05-08 11:05 | 54.89051 | 20.59420 | 25 ft | 54 kts | 66° |
| 2026-05-08 11:06 | 54.89123 | 20.59697 | 23 ft | 8 kts | 68° |
| 2026-05-08 11:06 | 54.89130 | 20.59789 | 20 ft | 7 kts | 47° |
| 2026-05-08 11:06 | 54.89155 | 20.59761 | 21 ft | 5 kts | 265° |
| 2026-05-08 11:06 | 54.89126 | 20.59705 | 22 ft | 8 kts | 235° |
| 2026-05-08 11:07 | 54.89102 | 20.59615 | 23 ft | 8 kts | 245° |
| 2026-05-08 11:07 | 54.89079 | 20.59527 | 27 ft | 8 kts | 246° |
| 2026-05-08 11:07 | 54.89053 | 20.59425 | 25 ft | 11 kts | 246° |
| 2026-05-08 11:07 | 54.89014 | 20.59290 | 24 ft | 14 kts | 237° |
| 2026-05-08 11:08 | 54.88955 | 20.59167 | 25 ft | 13 kts | 223° |
| 2026-05-08 11:08 | 54.88878 | 20.59088 | 26 ft | 13 kts | 206° |
| 2026-05-08 11:08 | 54.88800 | 20.59021 | 29 ft | 12 kts | 206° |
| 2026-05-08 11:08 | 54.88728 | 20.58951 | 27 ft | 10 kts | 219° |
| 2026-05-08 11:09 | 54.88696 | 20.58854 | 25 ft | 9 kts | 248° |
| 2026-05-08 11:09 | 54.88674 | 20.58766 | 26 ft | 7 kts | 234° |
| 2026-05-08 11:09 | 54.88632 | 20.58759 | 25 ft | 7 kts | 158° |
| 2026-05-08 11:09 | 54.88591 | 20.58792 | 27 ft | 6 kts | 156° |
| 2026-05-08 11:10 | 54.88550 | 20.58823 | 28 ft | 6 kts | 156° |
| 2026-05-08 11:10 | 54.88508 | 20.58840 | 29 ft | 6 kts | 179° |
| 2026-05-08 11:10 | 54.88475 | 20.58840 | 27 ft | 3 kts | 180° |
| 2026-05-08 11:10 | 54.88455 | 20.58839 | 26 ft | 3 kts | 186° |
| 2026-05-08 11:11 | 54.88438 | 20.58823 | 26 ft | 3 kts | 220° |
| 2026-05-08 11:11 | 54.88424 | 20.58801 | 31 ft | 3 kts | 222° |
| 2026-05-08 11:11 | 54.88416 | 20.58788 | 31 ft | 0 kts | 222° |